createdAt,value
2018-10-15T00:00:03.601Z,10.95
2018-10-15T00:03:41.225Z,6.10
2018-10-15T00:06:16.028Z,7.45
2018-10-15T00:08:50.440Z,6.50
2018-10-15T00:11:25.080Z,7.90
2018-10-15T00:13:59.611Z,8.50
2018-10-15T00:16:34.025Z,7.22
2018-10-15T00:19:08.562Z,9.90
2018-10-15T00:21:43.080Z,9.13
2018-10-15T00:24:17.738Z,8.70
2018-10-15T00:26:52.358Z,7.05
2018-10-15T00:29:27.032Z,10.08
2018-10-15T00:32:02.077Z,19.42
2018-10-15T00:34:36.563Z,31.25
2018-10-15T00:37:11.078Z,36.53
2018-10-15T00:39:45.753Z,36.55
2018-10-15T00:42:20.578Z,39.25
2018-10-15T00:44:55.313Z,22.15
2018-10-15T00:47:30.023Z,26.62
2018-10-15T00:50:05.932Z,19.02
2018-10-15T00:52:40.797Z,9.63
2018-10-15T00:55:15.232Z,12.95
2018-10-15T00:57:49.707Z,13.65
2018-10-15T01:00:24.213Z,11.03
2018-10-15T01:02:58.827Z,8.70
2018-10-15T01:05:33.341Z,10.25
2018-10-15T01:08:08.076Z,20.77
2018-10-15T01:10:42.826Z,6.47
2018-10-15T01:13:17.306Z,8.20
2018-10-15T01:15:51.706Z,9.40
2018-10-15T01:18:26.184Z,5.70
2018-10-15T01:21:00.765Z,7.80
2018-10-15T01:23:35.498Z,9.48
2018-10-15T01:26:10.047Z,8.60
2018-10-15T01:28:44.628Z,6.33
2018-10-15T01:31:19.267Z,9.18
2018-10-15T01:33:53.820Z,7.15
2018-10-15T01:36:28.319Z,9.13
2018-10-15T01:39:02.977Z,11.18
2018-10-15T01:41:37.535Z,10.05
2018-10-15T01:44:12.754Z,8.38
2018-10-15T01:46:47.594Z,8.73
2018-10-15T01:49:22.282Z,5.85
2018-10-15T01:51:56.981Z,6.22
2018-10-15T01:54:31.702Z,11.90
2018-10-15T01:57:06.498Z,12.10
2018-10-15T01:59:41.203Z,9.68
2018-10-15T02:02:15.916Z,10.60
2018-10-15T02:04:50.658Z,14.53
2018-10-15T02:07:25.173Z,10.93
2018-10-15T02:09:59.785Z,11.68
2018-10-15T02:12:34.478Z,8.03
2018-10-15T02:15:09.321Z,9.08
2018-10-15T02:17:44.282Z,9.30
2018-10-15T02:20:19.122Z,8.70
2018-10-15T02:22:53.941Z,9.20
2018-10-15T02:25:28.820Z,12.55
2018-10-15T02:28:03.450Z,9.93
2018-10-15T02:30:38.130Z,17.60
2018-10-15T02:33:12.849Z,26.62
2018-10-15T02:35:47.463Z,28.75
2018-10-15T02:38:22.264Z,23.60
2018-10-15T02:40:56.989Z,13.00
2018-10-15T02:43:31.871Z,6.62
2018-10-15T02:46:06.728Z,7.85
2018-10-15T02:48:41.580Z,6.37
2018-10-15T02:51:16.277Z,10.03
2018-10-15T02:53:51.131Z,12.43
2018-10-15T02:56:25.933Z,10.72
2018-10-15T02:59:01.011Z,10.20
2018-10-15T03:01:35.835Z,10.10
2018-10-15T03:04:10.482Z,8.88
2018-10-15T03:06:45.156Z,16.73
2018-10-15T03:09:19.993Z,33.25
2018-10-15T03:11:54.924Z,49.08
2018-10-15T03:14:29.677Z,82.37
2018-10-15T03:17:04.217Z,35.15
2018-10-15T03:19:38.892Z,30.82
2018-10-15T03:22:13.631Z,26.23
2018-10-15T03:24:48.158Z,13.22
2018-10-15T03:27:22.708Z,10.72
2018-10-15T03:29:57.313Z,8.03
2018-10-15T03:32:31.919Z,21.33
2018-10-15T03:35:07.531Z,20.45
2018-10-15T03:37:41.964Z,26.65
2018-10-15T03:40:16.628Z,22.27
2018-10-15T03:42:51.137Z,25.85
2018-10-15T03:45:25.609Z,18.50
2018-10-15T03:48:00.170Z,15.65
2018-10-15T03:50:34.663Z,16.35
2018-10-15T03:53:09.373Z,15.18
2018-10-15T03:55:43.794Z,15.95
2018-10-15T03:58:18.404Z,13.62
2018-10-15T04:00:52.953Z,11.57
2018-10-15T04:03:27.601Z,14.73
2018-10-15T04:06:02.211Z,10.35
2018-10-15T04:08:36.742Z,10.00
2018-10-15T04:11:11.248Z,13.38
2018-10-15T04:13:45.870Z,14.35
2018-10-15T04:16:20.588Z,10.35
2018-10-15T04:18:55.376Z,11.80
2018-10-15T04:21:30.278Z,10.75
2018-10-15T04:24:05.960Z,10.48
2018-10-15T04:26:40.640Z,14.05
2018-10-15T04:29:15.657Z,12.28
2018-10-15T04:31:50.885Z,11.48
2018-10-15T04:34:26.010Z,9.55
2018-10-15T04:37:00.587Z,11.83
2018-10-15T04:39:35.558Z,9.88
2018-10-15T04:42:10.438Z,10.40
2018-10-15T04:44:45.387Z,10.88
2018-10-15T04:47:19.933Z,9.33
2018-10-15T04:49:54.879Z,10.18
2018-10-15T04:52:29.990Z,9.20
2018-10-15T04:55:05.379Z,10.60
2018-10-15T04:57:39.943Z,11.28
2018-10-15T05:00:14.675Z,9.85
2018-10-15T05:02:49.368Z,10.93
2018-10-15T05:05:24.116Z,8.88
2018-10-15T05:07:58.853Z,12.65
2018-10-15T05:10:33.537Z,16.17
2018-10-15T05:13:08.322Z,43.17
2018-10-15T05:15:43.286Z,27.30
2018-10-15T05:18:17.987Z,30.62
2018-10-15T05:20:52.848Z,24.35
2018-10-15T05:23:27.566Z,17.42
2018-10-15T05:26:02.442Z,39.60
2018-10-15T05:28:37.397Z,17.27
2018-10-15T05:31:11.869Z,21.07
2018-10-15T05:33:46.547Z,12.45
2018-10-15T05:36:21.388Z,10.48
2018-10-15T05:38:56.028Z,13.58
2018-10-15T05:41:30.988Z,24.12
2018-10-15T05:44:06.148Z,31.57
2018-10-15T05:46:41.103Z,35.23
2018-10-15T05:49:15.723Z,33.65
2018-10-15T05:51:51.176Z,20.05
2018-10-15T05:54:26.029Z,24.43
2018-10-15T05:57:00.843Z,34.90
2018-10-15T05:59:35.598Z,32.38
2018-10-15T06:02:10.399Z,44.18
2018-10-15T06:04:45.053Z,48.92
2018-10-15T06:07:19.672Z,87.90
2018-10-15T06:09:54.529Z,51.00
2018-10-15T06:12:29.385Z,51.53
2018-10-15T06:15:04.177Z,50.73
2018-10-15T06:17:39.172Z,34.40
2018-10-15T06:20:14.139Z,30.12
2018-10-15T06:22:48.980Z,33.23
2018-10-15T06:25:23.754Z,52.17
2018-10-15T06:27:58.398Z,89.75
2018-10-15T06:30:32.992Z,50.75
2018-10-15T06:33:08.074Z,24.47
2018-10-15T06:35:42.878Z,26.12
2018-10-15T06:38:17.517Z,32.95
2018-10-15T06:40:52.357Z,37.28
2018-10-15T06:43:27.097Z,67.65
2018-10-15T06:46:01.874Z,126.87
2018-10-15T06:48:36.771Z,106.50
2018-10-15T06:51:11.841Z,48.05
2018-10-15T06:53:46.669Z,35.15
2018-10-15T06:56:26.977Z,28.90
2018-10-15T06:59:01.590Z,27.13
2018-10-15T07:01:36.226Z,31.48
2018-10-15T07:04:10.753Z,25.27
2018-10-15T07:06:45.623Z,25.12
2018-10-15T07:09:20.343Z,21.77
2018-10-15T07:11:55.032Z,18.60
2018-10-15T07:14:29.905Z,27.58
2018-10-15T07:17:04.772Z,21.87
2018-10-15T07:19:39.420Z,17.35
2018-10-15T07:22:14.369Z,17.17
2018-10-15T07:25:00.250Z,14.10
2018-10-15T07:27:34.895Z,20.37
2018-10-15T07:30:10.900Z,25.52
2018-10-15T07:32:45.699Z,13.90
2018-10-15T07:35:20.338Z,14.25
2018-10-15T07:37:55.155Z,16.62
2018-10-15T07:40:29.874Z,35.03
2018-10-15T07:43:04.873Z,85.87
2018-10-15T07:45:39.662Z,50.38
2018-10-15T07:48:14.510Z,33.85
2018-10-15T07:50:49.451Z,51.55
2018-10-15T07:53:24.231Z,17.82
2018-10-15T07:55:59.140Z,26.93
2018-10-15T07:58:34.499Z,26.20
2018-10-15T08:01:09.340Z,14.15
2018-10-15T08:03:44.183Z,13.78
2018-10-15T08:06:19.031Z,15.03
2018-10-15T08:08:54.122Z,15.38
2018-10-15T08:11:28.877Z,17.92
2018-10-15T08:14:03.716Z,15.03
2018-10-15T08:16:38.472Z,24.10
2018-10-15T08:19:13.127Z,18.23
2018-10-15T08:21:47.791Z,19.02
2018-10-15T08:24:22.668Z,13.68
2018-10-15T08:26:57.414Z,17.65
2018-10-15T08:29:32.128Z,12.80
2018-10-15T08:32:07.073Z,12.18
2018-10-15T08:34:41.843Z,12.07
2018-10-15T08:37:16.588Z,20.55
2018-10-15T08:39:51.382Z,18.80
2018-10-15T08:42:26.155Z,8.33
2018-10-15T08:45:00.875Z,22.67
2018-10-15T08:47:35.663Z,37.67
2018-10-15T08:50:11.277Z,42.08
2018-10-15T08:52:47.453Z,61.15
2018-10-15T08:55:22.253Z,43.10
2018-10-15T08:57:57.029Z,19.90
2018-10-15T09:00:31.765Z,9.85
2018-10-15T09:03:06.761Z,12.65
2018-10-15T09:05:41.295Z,17.35
2018-10-15T09:08:16.280Z,11.85
2018-10-15T09:10:50.965Z,21.20
2018-10-15T09:13:25.602Z,30.25
2018-10-15T09:16:00.460Z,26.48
2018-10-15T09:18:34.916Z,13.48
2018-10-15T09:21:09.707Z,22.10
2018-10-15T09:23:44.421Z,16.97
2018-10-15T09:26:19.190Z,15.48
2018-10-15T09:28:53.810Z,15.18
2018-10-15T09:31:29.132Z,15.13
2018-10-15T09:34:03.916Z,24.07
2018-10-15T09:36:38.925Z,35.60
2018-10-15T09:39:14.456Z,15.80
2018-10-15T09:41:49.063Z,11.93
2018-10-15T09:44:23.817Z,14.78
2018-10-15T09:46:58.713Z,33.33
2018-10-15T09:49:33.382Z,31.37
2018-10-15T09:52:08.101Z,16.60
2018-10-15T09:54:43.149Z,22.45
2018-10-15T09:57:17.902Z,93.30
2018-10-15T09:59:53.174Z,138.90
2018-10-15T10:02:28.136Z,134.93
2018-10-15T10:12:07.625Z,21.55
2018-10-15T11:21:08.925Z,11.80
2018-10-15T11:23:43.138Z,12.60
2018-10-15T11:26:17.545Z,8.40
2018-10-15T11:28:51.837Z,6.08
2018-10-15T11:31:26.296Z,6.10
2018-10-15T11:34:00.692Z,4.70
2018-10-15T11:36:35.427Z,6.05
2018-10-15T11:39:09.727Z,6.83
2018-10-15T11:41:44.101Z,5.55
2018-10-15T11:44:18.677Z,4.58
2018-10-15T11:46:52.897Z,5.80
2018-10-15T11:49:27.200Z,22.37
2018-10-15T11:52:01.562Z,5.42
2018-10-15T11:54:36.098Z,9.13
2018-10-15T11:57:10.371Z,6.53
2018-10-15T11:59:44.664Z,5.58
2018-10-15T12:02:19.168Z,8.60
2018-10-15T12:04:53.534Z,5.55
2018-10-15T12:07:27.797Z,5.72
2018-10-15T12:10:02.055Z,9.93
2018-10-15T12:12:36.425Z,4.75
2018-10-15T12:15:13.863Z,5.83
2018-10-15T12:17:48.261Z,7.47
2018-10-15T12:20:22.985Z,20.52
2018-10-15T12:22:57.425Z,16.40
2018-10-15T12:25:31.861Z,8.85
2018-10-15T12:28:06.395Z,43.70
2018-10-15T12:30:41.408Z,6.53
2018-10-15T12:33:15.675Z,5.55
2018-10-15T12:35:49.900Z,7.12
2018-10-15T12:38:24.286Z,10.00
2018-10-15T12:40:58.796Z,6.08
2018-10-15T12:43:33.103Z,5.58
2018-10-15T12:46:07.721Z,5.15
2018-10-15T12:48:42.093Z,5.62
2018-10-15T12:51:16.384Z,5.40
2018-10-15T12:56:48.377Z,5.90
2018-10-15T12:59:22.797Z,6.53
2018-10-15T13:01:57.155Z,4.67
2018-10-15T13:04:31.518Z,6.22
2018-10-15T13:07:05.952Z,12.03
2018-10-15T13:09:40.494Z,9.05
2018-10-15T13:12:14.910Z,8.68
2018-10-15T13:14:49.380Z,7.45
2018-10-15T13:17:23.831Z,5.58
2018-10-15T13:19:58.247Z,5.80
2018-10-15T13:22:32.631Z,5.70
2018-10-15T13:25:08.275Z,6.95
2018-10-15T13:27:42.719Z,13.03
2018-10-15T13:30:17.166Z,22.25
2018-10-15T13:32:51.554Z,7.53
2018-10-15T13:35:25.810Z,9.03
2018-10-15T13:38:00.203Z,6.00
2018-10-15T13:40:34.664Z,9.90
2018-10-15T13:43:09.090Z,6.37
2018-10-15T13:45:43.464Z,5.45
2018-10-15T13:48:17.770Z,7.83
2018-10-15T13:50:52.103Z,5.40
2018-10-15T13:53:26.622Z,5.75
2018-10-15T13:56:00.944Z,8.25
2018-10-15T13:58:35.222Z,7.92
2018-10-15T14:01:09.502Z,7.97
2018-10-15T14:03:43.925Z,8.30
2018-10-15T14:06:18.339Z,8.05
2018-10-15T14:08:52.679Z,8.48
2018-10-15T14:11:27.066Z,8.80
2018-10-15T14:14:01.335Z,5.90
2018-10-15T14:16:35.621Z,5.67
2018-10-15T14:19:09.967Z,5.47
2018-10-15T14:21:44.498Z,5.08
2018-10-15T14:24:18.804Z,5.62
2018-10-15T14:26:53.273Z,9.63
2018-10-15T14:29:27.860Z,10.18
2018-10-15T14:32:02.274Z,5.83
2018-10-15T14:34:36.572Z,12.37
2018-10-15T14:37:11.008Z,7.45
2018-10-15T14:39:45.278Z,7.87
2018-10-15T14:42:19.721Z,7.22
2018-10-15T14:44:54.020Z,7.05
2018-10-15T14:47:28.433Z,6.90
2018-10-15T14:50:07.084Z,6.25
2018-10-15T14:52:44.904Z,6.65
2018-10-15T14:55:19.361Z,8.28
2018-10-15T14:57:53.715Z,6.42
2018-10-15T15:00:28.179Z,8.20
2018-10-15T15:03:02.484Z,6.37
2018-10-15T15:05:36.720Z,9.35
2018-10-15T15:08:11.092Z,7.90
2018-10-15T15:10:58.020Z,11.63
2018-10-15T15:13:43.883Z,8.13
2018-10-15T15:16:18.303Z,7.55
2018-10-15T15:18:52.791Z,8.73
2018-10-15T15:21:27.311Z,7.05
2018-10-15T15:24:01.545Z,5.55
2018-10-15T15:26:36.650Z,7.22
2018-10-15T15:29:10.925Z,8.75
2018-10-15T15:31:45.275Z,8.88
2018-10-15T15:34:19.700Z,9.25
2018-10-15T15:36:54.043Z,10.45
2018-10-15T15:39:28.395Z,21.30
2018-10-15T15:42:02.847Z,11.48
2018-10-15T15:44:37.243Z,8.03
2018-10-15T15:47:11.452Z,6.35
2018-10-15T15:49:45.822Z,6.53
2018-10-15T15:52:20.270Z,7.37
2018-10-15T15:54:54.694Z,12.75
2018-10-15T15:57:28.910Z,10.20
2018-10-15T16:00:03.256Z,9.00
2018-10-15T16:02:37.732Z,10.20
2018-10-15T16:05:12.247Z,8.05
2018-10-15T16:07:46.706Z,8.28
2018-10-15T16:10:21.044Z,12.78
2018-10-15T16:12:55.386Z,11.15
2018-10-15T16:15:29.786Z,11.78
2018-10-15T16:18:04.165Z,8.23
2018-10-15T16:20:38.536Z,9.08
2018-10-15T16:23:12.950Z,13.53
2018-10-15T16:25:47.196Z,8.20
2018-10-15T16:28:21.537Z,12.23
2018-10-15T16:30:56.211Z,10.98
2018-10-15T16:33:30.675Z,17.35
2018-10-15T16:36:05.121Z,11.68
2018-10-15T16:38:39.287Z,9.75
2018-10-15T16:41:13.588Z,14.95
2018-10-15T16:43:47.891Z,10.30
2018-10-15T16:46:22.174Z,20.57
2018-10-15T16:48:56.527Z,12.90
2018-10-15T16:51:31.005Z,12.10
2018-10-15T16:54:05.722Z,9.95
2018-10-15T16:56:40.512Z,10.93
2018-10-15T16:59:15.004Z,14.78
2018-10-15T17:01:49.403Z,12.00
2018-10-15T17:04:23.803Z,20.02
2018-10-15T17:06:58.062Z,46.80
2018-10-15T17:09:32.562Z,57.00
2018-10-15T17:12:07.013Z,33.20
2018-10-15T17:14:41.295Z,19.15
2018-10-15T17:17:15.650Z,31.33
2018-10-15T17:19:49.931Z,34.98
2018-10-15T17:22:24.460Z,17.00
2018-10-15T17:24:58.774Z,29.50
2018-10-15T17:27:33.175Z,23.70
2018-10-15T17:30:08.695Z,16.67
2018-10-15T17:32:44.139Z,29.40
2018-10-15T17:35:18.595Z,32.58
2018-10-15T17:37:52.911Z,18.45
2018-10-15T17:40:27.206Z,27.15
2018-10-15T17:43:01.549Z,20.15
2018-10-15T17:45:35.850Z,27.40
2018-10-15T17:48:10.141Z,26.70
2018-10-15T17:50:46.440Z,20.30
2018-10-15T17:53:20.834Z,12.23
2018-10-15T17:55:55.103Z,14.55
2018-10-15T17:58:29.410Z,13.62
2018-10-15T18:01:03.815Z,19.75
2018-10-15T18:03:38.218Z,18.35
2018-10-15T18:06:12.664Z,16.50
2018-10-15T18:08:47.026Z,33.65
2018-10-15T18:11:21.515Z,20.68
2018-10-15T18:13:55.855Z,47.43
2018-10-15T18:16:30.135Z,23.70
2018-10-15T18:19:04.514Z,16.25
2018-10-15T18:21:38.941Z,15.70
2018-10-15T18:24:13.316Z,30.40
2018-10-15T18:26:47.637Z,18.00
2018-10-15T18:29:22.122Z,16.87
2018-10-15T18:31:56.509Z,29.92
2018-10-15T18:34:30.772Z,16.87
2018-10-15T18:37:05.332Z,14.43
2018-10-15T18:39:39.627Z,13.50
2018-10-15T18:42:14.101Z,16.87
2018-10-15T18:44:48.536Z,27.80
2018-10-15T18:47:22.875Z,19.35
2018-10-15T18:49:57.130Z,36.38
2018-10-15T18:52:31.595Z,30.32
2018-10-15T18:55:06.092Z,15.05
2018-10-15T18:57:40.722Z,23.67
2018-10-15T19:00:15.269Z,22.52
2018-10-15T19:02:49.747Z,15.32
2018-10-15T19:05:24.119Z,15.63
2018-10-15T19:07:58.371Z,25.30
2018-10-15T19:10:32.764Z,12.95
2018-10-15T19:13:07.048Z,14.95
2018-10-15T19:15:41.460Z,15.08
2018-10-15T19:18:15.832Z,15.05
2018-10-15T19:20:50.149Z,19.92
2018-10-15T19:23:24.472Z,22.77
2018-10-15T19:25:58.797Z,15.80
2018-10-15T19:28:33.553Z,16.55
2018-10-15T19:31:07.965Z,18.75
2018-10-15T19:33:42.508Z,19.45
2018-10-15T19:36:17.038Z,18.67
2018-10-15T19:38:51.463Z,27.20
2018-10-15T19:41:25.964Z,19.62
2018-10-15T19:44:00.204Z,16.75
2018-10-15T19:46:35.426Z,20.65
2018-10-15T19:49:09.922Z,47.60
2018-10-15T19:51:44.404Z,37.98
2018-10-15T19:54:18.686Z,30.40
2018-10-15T19:56:53.263Z,31.65
2018-10-15T19:59:27.843Z,20.82
2018-10-15T20:02:02.592Z,20.92
2018-10-15T20:04:36.992Z,20.60
2018-10-15T20:07:11.430Z,20.15
2018-10-15T20:09:45.931Z,18.57
2018-10-15T20:12:20.258Z,22.05
2018-10-15T20:14:54.795Z,19.90
2018-10-15T20:17:29.320Z,17.42
2018-10-15T20:20:03.933Z,21.90
2018-10-15T20:22:38.407Z,22.77
2018-10-15T20:25:13.034Z,18.23
2018-10-15T20:27:47.327Z,19.87
2018-10-15T20:30:21.707Z,16.00
2018-10-15T20:32:56.073Z,19.77
2018-10-15T20:35:30.460Z,22.02
2018-10-15T20:38:04.947Z,16.25
2018-10-15T20:40:39.383Z,15.93
2018-10-15T20:43:13.637Z,22.22
2018-10-15T20:45:48.033Z,23.25
2018-10-15T20:48:22.493Z,29.85
2018-10-15T20:50:56.882Z,36.90
2018-10-15T20:53:31.189Z,31.00
2018-10-15T20:56:06.027Z,31.87
2018-10-15T20:58:40.474Z,24.10
2018-10-15T21:01:14.793Z,17.05
2018-10-15T21:03:49.181Z,19.42
2018-10-15T21:06:23.770Z,15.03
2018-10-15T21:08:58.183Z,23.57
2018-10-15T21:11:32.583Z,22.90
2018-10-15T21:14:07.862Z,20.10
2018-10-15T21:16:42.320Z,22.25
2018-10-15T21:19:16.573Z,21.27
2018-10-15T21:21:51.023Z,22.55
2018-10-15T21:24:26.059Z,21.52
2018-10-15T21:27:00.493Z,16.17
2018-10-15T21:29:34.889Z,15.40
2018-10-15T21:32:09.430Z,23.32
2018-10-15T21:34:43.793Z,42.65
2018-10-15T21:37:18.152Z,46.40
2018-10-15T21:39:52.473Z,34.18
2018-10-15T21:42:26.938Z,28.65
2018-10-15T21:45:01.187Z,33.63
2018-10-15T21:47:35.714Z,21.07
2018-10-15T21:50:11.690Z,27.15
2018-10-15T21:52:46.007Z,44.48
2018-10-15T21:55:20.391Z,41.83
2018-10-15T21:57:54.718Z,44.80
2018-10-15T22:00:29.040Z,29.85
2018-10-15T22:03:03.499Z,26.55
2018-10-15T22:05:37.919Z,24.15
2018-10-15T22:08:12.149Z,23.55
2018-10-15T22:10:46.634Z,23.22
2018-10-15T22:13:20.922Z,28.95
2018-10-15T22:15:55.341Z,25.65
2018-10-15T22:18:29.698Z,20.15
2018-10-15T22:21:03.956Z,24.52
2018-10-15T22:23:38.343Z,27.15
2018-10-15T22:26:12.636Z,21.17
2018-10-15T22:28:46.919Z,26.95
2018-10-15T22:31:21.193Z,26.05
2018-10-15T22:33:55.607Z,30.60
2018-10-15T22:36:29.869Z,32.33
2018-10-15T22:39:06.971Z,28.05
2018-10-15T22:41:42.726Z,36.68
2018-10-15T22:44:17.229Z,35.17
2018-10-15T22:46:51.550Z,28.32
2018-10-15T22:49:25.970Z,28.00
2018-10-15T22:52:00.247Z,26.27
2018-10-15T22:54:34.783Z,21.80
2018-10-15T22:57:09.297Z,24.47
2018-10-15T22:59:43.637Z,24.92
2018-10-15T23:02:17.908Z,17.27
2018-10-15T23:04:52.502Z,18.10
2018-10-15T23:07:26.787Z,21.57
2018-10-15T23:10:01.133Z,19.55
2018-10-15T23:12:35.596Z,18.35
2018-10-15T23:15:09.931Z,18.23
2018-10-15T23:17:44.466Z,21.60
2018-10-15T23:20:18.819Z,17.40
2018-10-15T23:22:53.189Z,25.82
2018-10-15T23:25:27.536Z,37.78
2018-10-15T23:28:01.916Z,90.07
2018-10-15T23:30:36.398Z,17.40
2018-10-15T23:33:10.655Z,13.70
2018-10-15T23:35:45.078Z,20.25
2018-10-15T23:38:19.432Z,15.32
2018-10-15T23:40:53.810Z,18.70
2018-10-15T23:43:28.339Z,15.03
2018-10-15T23:46:02.711Z,20.10
2018-10-15T23:48:37.535Z,18.42
2018-10-15T23:51:11.830Z,16.55
2018-10-15T23:53:46.198Z,25.30
2018-10-15T23:56:20.503Z,19.20
2018-10-15T23:58:54.876Z,17.45
